Time;durP1;ratioP1;P1;durP2;ratioP2;P2;SDS_P1;SDS_P2;PMS_P1;PMS_P2;Temp;Humidity;BMP_temperature;BMP_pressure;BME280_temperature;BME280_humidity;BME280_pressure;Samples;Min_cycle;Max_cycle;Signal;HPM_P1;HPM_P2
2021/06/28 00:01:38;;;;;;;13.10;8.20;;;;;;;18.86;88.24;101048.69;4992042;23;20124;-70
2021/06/28 00:04:05;;;;;;;12.73;8.23;;;;;;;18.82;87.72;101046.28;4990251;28;20057;-68
2021/06/28 00:06:31;;;;;;;14.32;8.23;;;;;;;18.81;87.54;101045.44;4988883;28;20047;-70
2021/06/28 00:08:58;;;;;;;10.35;7.90;;;;;;;18.79;87.59;101039.38;4980252;28;20416;-67
2021/06/28 00:11:26;;;;;;;14.20;8.23;;;;;;;18.79;87.98;101042.84;4990223;28;20053;-69
2021/06/28 00:13:54;;;;;;;14.32;8.23;;;;;;;18.79;88.35;101036.75;4982242;28;20142;-70
2021/06/28 00:16:23;;;;;;;11.18;8.18;;;;;;;18.79;88.16;101036.75;4989100;28;20054;-69
2021/06/28 00:18:49;;;;;;;17.83;8.90;;;;;;;18.75;88.25;101041.31;4992358;28;20058;-69
2021/06/28 00:21:17;;;;;;;11.55;8.65;;;;;;;18.76;88.25;101034.25;4985334;28;20050;-68
2021/06/28 00:23:43;;;;;;;14.50;8.48;;;;;;;18.76;88.06;101032.50;4994089;28;20077;-68
2021/06/28 00:26:10;;;;;;;13.55;8.27;;;;;;;18.76;88.16;101018.44;4994069;28;20050;-70
2021/06/28 00:28:37;;;;;;;18.23;8.75;;;;;;;18.74;88.07;101017.66;4989435;28;20065;-68
2021/06/28 00:31:04;;;;;;;13.85;8.50;;;;;;;18.68;88.18;101021.44;4987227;28;20112;-70
2021/06/28 00:33:31;;;;;;;15.32;8.98;;;;;;;18.64;88.24;101026.00;4993459;28;20050;-69
2021/06/28 00:35:57;;;;;;;12.85;8.68;;;;;;;18.64;88.57;101018.09;4981039;28;20049;-68
2021/06/28 00:38:23;;;;;;;17.58;8.95;;;;;;;18.62;88.76;101012.06;4987655;28;20047;-69
2021/06/28 00:40:50;;;;;;;15.18;9.13;;;;;;;18.62;88.53;101024.38;4991941;28;20054;-68
2021/06/28 00:43:17;;;;;;;16.23;8.75;;;;;;;18.60;88.47;101016.56;4992228;28;20105;-68
2021/06/28 00:45:44;;;;;;;16.92;8.25;;;;;;;18.61;88.77;101007.75;4986553;28;20053;-69
2021/06/28 00:48:13;;;;;;;14.80;8.73;;;;;;;18.62;88.56;101003.31;4986998;28;20062;-69
2021/06/28 00:50:43;;;;;;;13.02;8.82;;;;;;;18.61;88.81;101005.09;4977522;28;20052;-68
2021/06/28 00:53:12;;;;;;;11.95;8.60;;;;;;;18.58;89.10;101002.59;4982804;28;20053;-68
2021/06/28 00:55:40;;;;;;;11.95;8.05;;;;;;;18.55;88.60;101004.53;4990876;28;20065;-67
2021/06/28 00:58:07;;;;;;;14.52;8.65;;;;;;;18.54;88.67;100995.78;4983167;28;20434;-67
2021/06/28 01:00:34;;;;;;;15.45;9.70;;;;;;;18.45;89.02;101002.34;4986518;28;20054;-69
2021/06/28 01:03:02;;;;;;;14.02;8.85;;;;;;;18.39;89.06;101001.78;4993166;28;20061;-68
2021/06/28 01:05:32;;;;;;;14.30;8.35;;;;;;;18.36;89.22;101001.94;5001763;28;20445;-68
2021/06/28 01:08:00;;;;;;;13.18;9.07;;;;;;;18.38;89.07;101000.09;4991017;28;20129;-68
2021/06/28 01:10:27;;;;;;;16.55;9.13;;;;;;;18.42;88.97;100999.00;4988312;28;20146;-68
2021/06/28 01:12:54;;;;;;;14.95;8.63;;;;;;;18.39;88.73;101002.63;4992180;28;20059;-68
2021/06/28 01:15:22;;;;;;;10.98;8.50;;;;;;;18.37;89.10;100998.38;4984368;28;20453;-71
2021/06/28 01:17:49;;;;;;;14.38;8.90;;;;;;;18.34;89.14;100994.94;4991237;28;20395;-68
2021/06/28 01:20:19;;;;;;;13.57;8.57;;;;;;;18.33;89.05;100989.78;4986419;28;20441;-68
2021/06/28 01:22:48;;;;;;;18.27;9.25;;;;;;;18.32;88.79;100985.44;4983314;28;20415;-68
2021/06/28 01:25:18;;;;;;;15.68;8.77;;;;;;;18.29;88.99;100986.44;4986423;28;20402;-68
2021/06/28 01:27:45;;;;;;;11.25;8.25;;;;;;;18.30;88.77;100982.00;4983689;28;20057;-68
2021/06/28 01:30:14;;;;;;;16.45;8.77;;;;;;;18.28;88.71;100990.00;4992344;28;20058;-68
2021/06/28 01:32:44;;;;;;;20.42;9.32;;;;;;;18.27;88.51;100990.91;4992505;28;20054;-67
2021/06/28 01:35:12;;;;;;;16.92;9.05;;;;;;;18.25;88.85;100987.50;4985972;28;20050;-68
2021/06/28 01:37:38;;;;;;;19.88;9.38;;;;;;;18.20;89.00;100991.28;4981577;28;20051;-69
2021/06/28 01:40:07;;;;;;;13.32;8.57;;;;;;;18.17;89.00;100993.13;4992257;28;20468;-69
2021/06/28 01:42:36;;;;;;;14.68;9.40;;;;;;;18.11;89.02;100992.56;4991802;28;20501;-68
2021/06/28 01:45:04;;;;;;;12.82;8.88;;;;;;;18.11;89.25;101003.09;4986678;28;20054;-69
2021/06/28 01:47:31;;;;;;;13.00;9.45;;;;;;;18.13;88.96;101014.41;4980721;28;20043;-69
2021/06/28 01:49:57;;;;;;;14.18;9.07;;;;;;;18.15;89.12;101017.81;4984418;28;20046;-68
2021/06/28 01:52:23;;;;;;;14.30;8.82;;;;;;;18.09;89.23;101026.84;4984978;28;20055;-68
2021/06/28 01:54:50;;;;;;;13.45;8.77;;;;;;;18.10;89.30;101020.66;4982722;28;20510;-68
2021/06/28 01:57:17;;;;;;;11.43;8.98;;;;;;;18.13;89.40;101023.16;4988332;28;20073;-68
2021/06/28 01:59:44;;;;;;;11.77;8.80;;;;;;;18.15;89.58;101021.31;4984365;28;20057;-70
2021/06/28 02:02:11;;;;;;;12.55;9.30;;;;;;;18.18;89.83;101022.94;4991937;28;20046;-68
2021/06/28 02:04:37;;;;;;;13.82;10.23;;;;;;;18.22;89.96;101023.66;4985902;28;20054;-68
2021/06/28 02:07:07;;;;;;;15.60;9.25;;;;;;;18.20;90.16;101017.59;4994000;28;20471;-70
2021/06/28 02:09:33;;;;;;;14.10;10.00;;;;;;;18.19;90.20;101008.84;4991959;28;20050;-68
2021/06/28 02:12:00;;;;;;;18.80;10.50;;;;;;;18.20;90.15;101000.03;4992081;28;20054;-70
2021/06/28 02:14:27;;;;;;;15.25;10.80;;;;;;;18.19;90.06;101000.97;4978438;28;20465;-68
2021/06/28 02:16:55;;;;;;;11.98;9.65;;;;;;;18.20;89.98;101001.81;4980956;28;20429;-68
2021/06/28 02:19:22;;;;;;;12.05;9.70;;;;;;;18.16;90.12;101009.88;4981640;28;20061;-68
2021/06/28 02:21:49;;;;;;;13.60;10.57;;;;;;;18.16;90.09;101011.63;4981521;28;20083;-70
2021/06/28 02:24:17;;;;;;;17.65;10.75;;;;;;;18.14;89.96;100998.53;4979643;28;20054;-69
2021/06/28 02:26:44;;;;;;;14.98;10.75;;;;;;;18.03;90.39;101006.09;4991225;28;20461;-70
2021/06/28 02:29:11;;;;;;;15.75;10.93;;;;;;;17.96;90.57;101009.91;4991709;28;20051;-69
2021/06/28 02:31:39;;;;;;;12.50;10.32;;;;;;;17.94;90.72;101024.91;4991950;28;20077;-68
2021/06/28 02:34:07;;;;;;;17.75;11.32;;;;;;;17.91;90.76;101031.16;4985054;28;20051;-71
2021/06/28 02:36:33;;;;;;;12.65;10.07;;;;;;;17.92;90.44;101027.59;4989794;28;20054;-69
2021/06/28 02:39:01;;;;;;;13.30;10.52;;;;;;;17.97;90.65;101028.28;4994440;28;20061;-70
2021/06/28 02:41:28;;;;;;;14.15;10.55;;;;;;;17.97;90.61;101028.28;4995570;28;20058;-69
2021/06/28 02:43:55;;;;;;;14.05;10.93;;;;;;;17.97;90.66;101032.66;4995050;28;20101;-69
2021/06/28 02:46:22;;;;;;;16.63;10.82;;;;;;;18.01;90.41;101034.25;4993348;28;20050;-68
2021/06/28 02:48:49;;;;;;;15.48;10.63;;;;;;;17.99;90.70;101025.56;4982962;28;20615;-69
2021/06/28 02:51:18;;;;;;;13.80;10.60;;;;;;;18.02;90.91;101021.00;4985906;28;20441;-69
2021/06/28 02:53:44;;;;;;;14.43;10.27;;;;;;;18.08;90.92;101024.28;4995419;28;20054;-69
2021/06/28 02:56:14;;;;;;;15.13;11.15;;;;;;;18.08;91.01;101025.13;4995211;28;20453;-70
2021/06/28 02:58:42;;;;;;;14.82;10.57;;;;;;;18.10;90.78;101020.66;4991049;28;20050;-71
2021/06/28 03:01:08;;;;;;;14.45;10.65;;;;;;;18.12;90.51;101026.72;4982196;28;20426;-69
2021/06/28 03:03:35;;;;;;;15.07;10.15;;;;;;;18.11;90.56;101024.16;4978568;28;20513;-70
2021/06/28 03:06:01;;;;;;;12.80;11.15;;;;;;;18.10;90.47;101020.66;4997614;28;20049;-70
2021/06/28 03:08:30;;;;;;;17.95;10.68;;;;;;;18.06;90.73;101015.63;4999209;28;20138;-69
2021/06/28 03:10:56;;;;;;;19.73;11.25;;;;;;;18.05;90.49;101024.44;4990745;28;20055;-69
2021/06/28 03:13:23;;;;;;;14.90;10.30;;;;;;;17.99;90.53;101018.53;4987612;28;20061;-69
2021/06/28 03:15:49;;;;;;;14.65;10.55;;;;;;;17.96;90.71;101013.41;4978837;28;20057;-71
2021/06/28 03:18:16;;;;;;;14.82;10.77;;;;;;;17.90;90.72;101013.66;4985477;28;20046;-70
2021/06/28 03:20:42;;;;;;;18.05;11.07;;;;;;;17.81;90.78;101014.94;4987057;28;20050;-70
2021/06/28 03:23:09;;;;;;;14.25;11.20;;;;;;;17.77;90.93;101009.88;4982773;28;20394;-69
2021/06/28 03:25:37;;;;;;;14.50;11.15;;;;;;;17.72;91.05;101012.72;4985404;28;20413;-68
2021/06/28 03:28:04;;;;;;;15.82;11.15;;;;;;;17.65;91.06;101009.50;4980480;28;20050;-69
2021/06/28 03:30:30;;;;;;;16.98;10.57;;;;;;;17.59;91.44;101008.91;4975434;28;20113;-68
2021/06/28 03:32:57;;;;;;;21.00;12.02;;;;;;;17.56;91.78;101008.16;4980628;28;20050;-71
2021/06/28 03:35:23;;;;;;;15.90;11.38;;;;;;;17.58;91.91;101009.81;4982365;28;20043;-69
2021/06/28 03:37:50;;;;;;;18.08;11.52;;;;;;;17.64;91.85;101009.56;4986789;28;20053;-68
2021/06/28 03:40:17;;;;;;;18.77;12.82;;;;;;;17.68;91.62;101006.75;4994112;28;20047;-69
2021/06/28 03:42:45;;;;;;;18.23;12.82;;;;;;;17.65;91.64;101006.88;4993997;28;20081;-71
2021/06/28 03:45:13;;;;;;;15.00;11.88;;;;;;;17.62;91.78;101004.34;4982685;28;20038;-69
2021/06/28 03:47:41;;;;;;;18.00;12.52;;;;;;;17.61;91.98;101007.06;4978165;28;20102;-69
2021/06/28 03:50:10;;;;;;;15.65;12.40;;;;;;;17.59;91.80;101007.16;4991358;28;20057;-67
2021/06/28 03:52:37;;;;;;;14.52;12.43;;;;;;;17.58;92.07;101007.19;4983361;28;20102;-68
2021/06/28 03:55:05;;;;;;;16.00;11.93;;;;;;;17.60;91.98;101002.72;4981961;28;20526;-68
2021/06/28 03:57:31;;;;;;;17.52;12.98;;;;;;;17.64;91.99;101013.03;4982184;28;20053;-68
2021/06/28 04:00:00;;;;;;;16.50;12.30;;;;;;;17.72;91.96;101020.59;4987203;28;20054;-66
2021/06/28 04:02:27;;;;;;;17.65;12.10;;;;;;;17.85;91.73;101015.63;4985012;28;20156;-68
2021/06/28 04:04:53;;;;;;;15.90;11.07;;;;;;;17.93;91.52;101007.41;4984573;28;20529;-68
2021/06/28 04:07:20;;;;;;;20.45;11.68;;;;;;;18.05;90.83;101013.91;4987003;28;20061;-68
2021/06/28 04:09:46;;;;;;;16.05;11.95;;;;;;;18.10;90.42;101006.66;4988587;28;20057;-68
2021/06/28 04:12:13;;;;;;;14.52;10.88;;;;;;;18.22;89.68;101003.44;4981206;28;20060;-68
2021/06/28 04:14:41;;;;;;;15.75;10.52;;;;;;;18.30;89.25;100996.03;4979889;28;20050;-68
2021/06/28 04:17:09;;;;;;;17.73;11.80;;;;;;;18.36;89.33;101004.56;4983709;28;20043;-70
2021/06/28 04:19:36;;;;;;;14.68;10.77;;;;;;;18.44;89.25;101011.19;4987670;28;20058;-68
2021/06/28 04:22:03;;;;;;;12.25;10.52;;;;;;;18.60;88.72;101010.44;4981799;28;20054;-68
2021/06/28 04:24:29;;;;;;;14.48;11.20;;;;;;;18.77;87.95;101006.97;4982347;28;20046;-68
2021/06/28 04:26:56;;;;;;;14.40;11.32;;;;;;;18.95;87.26;101008.72;4981974;28;20514;-70
2021/06/28 04:29:22;;;;;;;18.00;11.18;;;;;;;19.07;86.66;101009.88;4988164;28;20050;-69
2021/06/28 04:31:50;;;;;;;15.48;11.55;;;;;;;19.17;86.05;101012.03;4975310;28;20051;-68
2021/06/28 04:34:18;;;;;;;15.27;11.52;;;;;;;19.26;85.94;101012.44;4986403;28;20046;-70
2021/06/28 04:36:44;;;;;;;14.93;10.85;;;;;;;19.33;85.98;101018.25;4986175;28;20085;-66
2021/06/28 04:39:10;;;;;;;17.38;11.07;;;;;;;19.51;85.57;101010.31;4986247;28;20081;-70
2021/06/28 04:41:37;;;;;;;18.17;11.32;;;;;;;19.74;84.81;101011.72;4985331;28;20050;-72
2021/06/28 04:44:04;;;;;;;16.15;10.30;;;;;;;19.95;84.10;101019.44;4988157;28;20054;-69
2021/06/28 04:46:31;;;;;;;13.27;10.23;;;;;;;20.17;82.96;101021.75;4984826;28;20391;-68
2021/06/28 04:48:57;;;;;;;18.13;10.55;;;;;;;20.33;81.40;101021.75;4980794;28;20057;-70
2021/06/28 04:51:26;;;;;;;13.95;9.85;;;;;;;20.32;81.71;101023.56;4984856;28;20049;-68
2021/06/28 04:53:52;;;;;;;13.77;10.65;;;;;;;20.38;81.75;101030.31;4993028;28;20076;-68
2021/06/28 04:56:19;;;;;;;14.73;10.48;;;;;;;20.53;81.07;101019.78;4990352;28;20525;-68
2021/06/28 04:58:45;;;;;;;17.90;10.40;;;;;;;20.69;80.38;101018.00;5005454;28;20513;-68
2021/06/28 05:01:11;;;;;;;18.45;10.68;;;;;;;20.90;79.91;101009.78;4985512;28;20057;-68
2021/06/28 05:03:38;;;;;;;16.13;9.85;;;;;;;21.01;78.89;101014.44;4985553;28;20052;-67
2021/06/28 05:06:05;;;;;;;13.13;10.02;;;;;;;20.96;78.63;101015.53;4984895;28;20066;-69
2021/06/28 05:08:32;;;;;;;15.18;9.98;;;;;;;21.03;79.00;101023.97;4980270;28;20057;-69
2021/06/28 05:10:59;;;;;;;13.10;9.55;;;;;;;21.04;79.09;101014.28;4990895;28;20046;-68
2021/06/28 05:13:25;;;;;;;14.27;10.45;;;;;;;21.01;78.90;101010.03;4987555;28;20050;-68
2021/06/28 05:15:52;;;;;;;16.08;9.57;;;;;;;20.93;79.04;101010.47;4992655;28;20101;-72
2021/06/28 05:18:18;;;;;;;14.38;9.70;;;;;;;20.93;79.45;100999.00;4990220;28;20042;-69
2021/06/28 05:20:45;;;;;;;20.35;10.20;;;;;;;20.85;79.51;101001.25;4982667;28;20047;-69
2021/06/28 05:23:12;;;;;;;17.77;10.52;;;;;;;20.86;79.46;101001.19;4984393;28;20074;-70
2021/06/28 05:25:40;;;;;;;13.23;10.27;;;;;;;21.05;79.11;100995.66;4988660;28;20051;-69
2021/06/28 05:28:06;;;;;;;17.30;10.50;;;;;;;21.24;78.46;100999.84;4992044;28;20053;-69
2021/06/28 05:30:32;;;;;;;13.15;10.20;;;;;;;21.38;77.94;100994.56;4982548;28;20109;-69
2021/06/28 05:32:59;;;;;;;15.68;10.23;;;;;;;21.53;76.41;100997.22;4982671;28;20062;-69
2021/06/28 05:35:25;;;;;;;21.42;10.82;;;;;;;21.79;76.03;100994.78;4983188;28;20094;-70
2021/06/28 05:37:52;;;;;;;15.05;8.65;;;;;;;21.95;75.47;100986.75;4980531;28;20050;-69
2021/06/28 05:40:18;;;;;;;19.23;9.95;;;;;;;22.13;74.27;100990.88;4987255;28;20116;-69
2021/06/28 05:42:47;;;;;;;13.20;9.38;;;;;;;22.26;73.63;100982.97;4989735;28;20050;-70
2021/06/28 05:45:14;;;;;;;16.50;10.00;;;;;;;22.37;74.14;100992.84;4992460;28;20065;-69
2021/06/28 05:47:40;;;;;;;14.25;9.45;;;;;;;22.46;74.11;100983.50;4989241;28;20054;-69
2021/06/28 05:50:11;;;;;;;20.20;10.63;;;;;;;22.59;73.86;100987.06;4984652;28;20085;-70
2021/06/28 05:52:37;;;;;;;20.05;10.93;;;;;;;22.84;72.68;100988.03;4974501;28;20058;-69
2021/06/28 05:55:05;;;;;;;16.73;10.60;;;;;;;22.95;71.11;100985.53;4984430;28;20050;-68
2021/06/28 05:57:31;;;;;;;15.25;10.68;;;;;;;22.91;71.20;100980.53;4985263;28;20534;-70
2021/06/28 05:59:59;;;;;;;20.45;10.90;;;;;;;23.06;70.85;100981.28;4984529;28;20057;-69
2021/06/28 06:02:26;;;;;;;15.32;10.77;;;;;;;23.07;70.88;100983.84;4990088;28;20105;-70
2021/06/28 06:04:52;;;;;;;17.73;10.80;;;;;;;23.05;71.02;100984.91;4982914;28;20061;-68
2021/06/28 06:07:18;;;;;;;15.75;9.73;;;;;;;23.07;71.69;100988.31;4980045;28;20506;-69
2021/06/28 06:09:45;;;;;;;17.73;11.10;;;;;;;22.94;73.39;100983.00;4985127;28;20122;-68
2021/06/28 06:12:13;;;;;;;15.95;11.95;;;;;;;23.01;73.03;100983.44;4990092;28;20054;-69
2021/06/28 06:14:40;;;;;;;18.02;12.00;;;;;;;23.19;72.96;100984.84;4992817;28;20105;-69
2021/06/28 06:17:07;;;;;;;16.38;11.80;;;;;;;23.41;72.34;100978.91;4989807;28;20046;-69
2021/06/28 06:19:34;;;;;;;20.48;13.48;;;;;;;23.53;70.82;100973.69;4986855;28;20046;-69
2021/06/28 06:22:00;;;;;;;17.23;12.00;;;;;;;23.84;70.72;100979.47;4987338;28;20058;-69
2021/06/28 06:24:29;;;;;;;18.75;13.13;;;;;;;24.10;69.72;100977.63;4990408;28;20077;-68
2021/06/28 06:26:56;;;;;;;17.88;14.02;;;;;;;24.49;69.23;100975.66;4982673;28;20042;-69
2021/06/28 06:29:23;;;;;;;14.25;11.65;;;;;;;24.78;66.75;100967.31;4983432;28;20043;-68
2021/06/28 06:31:49;;;;;;;18.65;13.27;;;;;;;25.17;65.37;100971.50;4980295;28;20054;-67
2021/06/28 06:34:17;;;;;;;18.10;12.68;;;;;;;25.37;65.02;100969.94;4986164;28;20057;-68
2021/06/28 06:36:43;;;;;;;19.02;13.00;;;;;;;25.40;64.31;100991.03;4974632;28;20046;-68
2021/06/28 06:39:10;;;;;;;17.73;11.32;;;;;;;25.63;64.75;100991.88;4990388;28;20042;-67
2021/06/28 06:41:36;;;;;;;19.13;11.77;;;;;;;25.73;65.06;100998.16;4982508;28;20428;-69
2021/06/28 06:44:03;;;;;;;14.68;11.35;;;;;;;25.80;65.00;100976.38;4979848;28;20047;-69
2021/06/28 06:46:30;;;;;;;17.52;11.93;;;;;;;26.01;63.77;100973.78;4971618;28;20051;-69
2021/06/28 06:48:56;;;;;;;17.10;10.75;;;;;;;26.03;62.87;100980.69;4981245;28;20054;-69
2021/06/28 06:51:24;;;;;;;16.15;10.45;;;;;;;26.22;62.89;100982.75;4983477;28;20046;-68
2021/06/28 06:53:50;;;;;;;17.08;10.63;;;;;;;26.29;62.35;100984.88;4978137;28;20050;-69
2021/06/28 06:56:17;;;;;;;15.57;10.82;;;;;;;26.37;62.77;100991.31;4985722;28;20046;-68
2021/06/28 06:58:44;;;;;;;16.67;11.05;;;;;;;26.50;60.49;100990.28;4995216;28;20532;-68
2021/06/28 07:01:14;;;;;;;16.98;11.00;;;;;;;26.34;62.04;100994.22;4991264;28;20047;-68
2021/06/28 07:03:40;;;;;;;12.50;10.48;;;;;;;26.24;63.67;101001.28;4982623;28;20141;-69
2021/06/28 07:06:06;;;;;;;15.25;10.23;;;;;;;26.20;63.69;101007.84;4979876;28;20047;-68
2021/06/28 07:08:36;;;;;;;11.77;10.18;;;;;;;26.18;64.25;101009.78;4988539;28;20166;-68
2021/06/28 07:11:04;;;;;;;13.60;10.40;;;;;;;26.10;62.83;101004.22;4972305;28;20142;-68
2021/06/28 07:13:31;;;;;;;15.85;11.20;;;;;;;25.89;63.94;101003.13;4980520;28;20050;-67
2021/06/28 07:15:58;;;;;;;16.23;10.95;;;;;;;25.79;65.78;101006.66;4983240;28;20046;-68
2021/06/28 07:18:24;;;;;;;16.17;10.27;;;;;;;25.80;64.82;101003.03;4985505;28;20445;-68
2021/06/28 07:20:51;;;;;;;12.50;9.20;;;;;;;25.85;64.39;101014.16;4982338;28;20058;-68
2021/06/28 07:23:17;;;;;;;15.20;10.57;;;;;;;25.83;65.29;101006.28;4992935;28;20050;-69
2021/06/28 07:25:45;;;;;;;14.18;10.75;;;;;;;25.88;64.46;101000.59;4991133;28;20085;-68
2021/06/28 07:28:12;;;;;;;13.15;10.48;;;;;;;25.94;64.36;101002.75;4989575;28;20555;-68
2021/06/28 07:30:40;;;;;;;13.82;10.57;;;;;;;25.82;64.71;100996.59;4994442;28;20460;-68
2021/06/28 07:33:07;;;;;;;18.40;11.45;;;;;;;25.65;64.54;100995.28;4988193;28;20042;-66
2021/06/28 07:35:34;;;;;;;13.60;10.65;;;;;;;25.52;65.93;100998.06;4992557;28;20043;-68
2021/06/28 07:38:00;;;;;;;16.85;11.15;;;;;;;25.37;65.54;101008.06;4986887;28;20069;-69
2021/06/28 07:40:27;;;;;;;16.60;12.15;;;;;;;25.27;66.11;101004.44;4994381;28;20091;-68
2021/06/28 07:42:55;;;;;;;14.80;11.30;;;;;;;25.13;66.37;101005.50;4991116;28;20124;-67
2021/06/28 07:45:22;;;;;;;20.45;12.18;;;;;;;24.89;67.97;101006.41;4983729;28;20050;-68
2021/06/28 07:47:49;;;;;;;18.17;11.85;;;;;;;24.86;69.38;101009.28;4988286;28;20149;-69
2021/06/28 07:50:17;;;;;;;14.25;11.13;;;;;;;24.90;68.27;101010.75;4992715;28;20050;-69
2021/06/28 07:52:44;;;;;;;16.35;12.13;;;;;;;24.96;67.40;101004.13;4989114;28;20050;-69
2021/06/28 07:55:13;;;;;;;15.68;12.05;;;;;;;24.87;67.42;100989.69;4994102;28;20047;-68
2021/06/28 07:57:40;;;;;;;19.88;13.75;;;;;;;24.84;66.90;100993.44;4998263;28;20054;-68
2021/06/28 08:00:11;;;;;;;16.48;13.50;;;;;;;24.86;67.03;100995.13;4988323;28;20055;-69
2021/06/28 08:02:37;;;;;;;21.10;14.07;;;;;;;24.90;66.66;101001.94;4979844;28;20050;-69
2021/06/28 08:05:05;;;;;;;19.45;14.40;;;;;;;24.67;64.99;101000.00;4989821;28;20526;-68
2021/06/28 08:07:31;;;;;;;16.15;13.43;;;;;;;24.58;66.54;101000.69;4985171;28;20043;-69
2021/06/28 08:09:58;;;;;;;18.88;13.65;;;;;;;24.60;67.40;100992.63;4993690;28;20046;-69
2021/06/28 08:12:24;;;;;;;17.58;14.27;;;;;;;24.56;67.35;100994.63;4993636;28;20492;-69
2021/06/28 08:14:51;;;;;;;17.70;12.93;;;;;;;24.66;67.65;100990.31;4987527;28;20425;-69
2021/06/28 08:17:18;;;;;;;15.13;12.73;;;;;;;24.66;67.57;100987.66;4991079;28;20497;-69
2021/06/28 08:19:46;;;;;;;20.83;13.70;;;;;;;24.90;66.87;100991.28;4986128;28;20046;-68
2021/06/28 08:22:13;;;;;;;19.42;13.50;;;;;;;24.95;67.32;101000.63;4987731;28;20513;-69
2021/06/28 08:24:40;;;;;;;20.75;15.35;;;;;;;25.04;66.57;100993.72;4990898;28;20058;-68
2021/06/28 08:27:06;;;;;;;18.60;15.07;;;;;;;25.01;65.58;100991.28;4977799;28;20047;-68
2021/06/28 08:29:33;;;;;;;19.10;13.15;;;;;;;25.04;66.58;100991.06;4984930;28;20046;-68
2021/06/28 08:31:59;;;;;;;18.40;13.90;;;;;;;25.13;66.70;100989.53;4982104;28;21134;-68
2021/06/28 08:34:27;;;;;;;15.98;12.68;;;;;;;25.10;66.28;100979.97;4986905;28;20058;-68
2021/06/28 08:36:54;;;;;;;18.08;13.25;;;;;;;25.15;65.70;100977.78;4974272;28;20046;-69
2021/06/28 08:39:21;;;;;;;17.67;13.40;;;;;;;25.23;66.07;100971.88;4981911;28;20047;-66
2021/06/28 08:41:52;;;;;;;18.83;11.52;;;;;;;25.38;64.83;100963.63;4988192;28;20050;-68
2021/06/28 08:44:18;;;;;;;22.65;14.82;;;;;;;25.34;65.41;100968.38;4979433;28;20050;-69
2021/06/28 08:46:46;;;;;;;19.02;14.10;;;;;;;25.31;64.22;100965.94;4985561;28;20047;-68
2021/06/28 08:49:13;;;;;;;19.17;12.30;;;;;;;25.25;65.06;100993.03;4988744;28;20050;-67
2021/06/28 08:51:43;;;;;;;17.30;12.70;;;;;;;25.33;64.57;100987.97;4983403;28;20047;-67
2021/06/28 08:54:11;;;;;;;21.75;13.63;;;;;;;25.39;63.50;100992.84;4978192;28;20085;-66
2021/06/28 08:56:39;;;;;;;20.00;12.25;;;;;;;25.48;63.51;100983.28;4990957;28;20046;-70
2021/06/28 08:59:07;;;;;;;18.75;13.35;;;;;;;25.56;63.63;100980.03;4981594;28;20054;-67
2021/06/28 09:01:34;;;;;;;20.25;14.90;;;;;;;25.32;63.38;100982.78;4988791;28;20069;-68
2021/06/28 09:04:01;;;;;;;23.15;14.18;;;;;;;25.23;63.87;100976.34;4984081;28;20049;-69
2021/06/28 09:06:28;;;;;;;19.50;13.40;;;;;;;25.23;65.29;100977.19;4979328;28;20054;-67
2021/06/28 09:08:58;;;;;;;19.10;13.57;;;;;;;25.22;65.73;100982.63;5003139;28;20053;-68
2021/06/28 09:11:25;;;;;;;19.08;12.93;;;;;;;25.18;65.57;100991.84;4991508;28;20077;-67
2021/06/28 09:13:54;;;;;;;17.73;11.93;;;;;;;25.13;64.83;100992.19;4990554;28;20050;-68
2021/06/28 09:16:22;;;;;;;21.38;12.20;;;;;;;24.96;64.56;100996.13;4990423;28;20134;-68
2021/06/28 09:18:54;;;;;;;19.65;11.95;;;;;;;24.99;65.27;101001.22;4987998;28;20069;-68
2021/06/28 09:21:33;;;;;;;22.75;12.52;;;;;;;25.22;65.19;100995.94;4984284;28;20050;-69
2021/06/28 09:24:02;;;;;;;21.85;14.45;;;;;;;25.39;65.30;101005.28;4987976;28;20047;-68
2021/06/28 09:26:33;;;;;;;23.88;13.68;;;;;;;25.75;65.14;101006.91;4980603;28;20050;-68
2021/06/28 09:29:01;;;;;;;25.85;13.98;;;;;;;26.04;64.46;101011.72;4979833;28;20457;-68
2021/06/28 09:31:47;;;;;;;23.90;13.70;;;;;;;26.42;62.61;101014.06;4990979;28;20054;-67
2021/06/28 09:34:15;;;;;;;27.48;15.13;;;;;;;26.81;61.30;101009.06;4987029;28;20053;-68
2021/06/28 09:36:46;;;;;;;27.27;14.32;;;;;;;26.87;58.66;101013.91;4974511;28;20042;-67
2021/06/28 09:39:23;;;;;;;23.67;13.30;;;;;;;26.94;60.03;101012.41;4974529;28;20050;-69
2021/06/28 09:41:57;;;;;;;19.90;12.93;;;;;;;27.10;60.52;101011.13;4988616;28;20050;-68
2021/06/28 09:44:25;;;;;;;24.45;14.18;;;;;;;27.23;58.41;101003.72;4979697;28;20093;-68
2021/06/28 09:47:06;;;;;;;22.70;13.77;;;;;;;27.12;58.12;101011.81;4980211;28;20584;-69
2021/06/28 09:49:33;;;;;;;24.17;12.43;;;;;;;27.10;59.81;101009.28;4986287;28;20130;-68
2021/06/28 09:52:00;;;;;;;20.40;12.40;;;;;;;27.12;60.41;101012.69;4972618;28;20102;-67
2021/06/28 09:54:27;;;;;;;18.73;12.80;;;;;;;27.08;59.84;101016.56;4980350;28;20054;-68
2021/06/28 09:56:55;;;;;;;24.40;13.30;;;;;;;27.03;59.65;101005.47;4991683;28;20050;-68
2021/06/28 09:59:26;;;;;;;18.48;11.57;;;;;;;27.00;59.35;101011.88;4988132;28;20050;-69
2021/06/28 10:02:10;;;;;;;19.98;13.13;;;;;;;26.96;59.10;101005.13;4980012;28;20063;-69
2021/06/28 10:04:41;;;;;;;21.70;13.73;;;;;;;26.98;58.71;101005.00;4988314;28;20366;-68
2021/06/28 10:07:36;;;;;;;20.27;12.00;;;;;;;27.14;58.90;101007.19;4981617;28;20752;-69
2021/06/28 10:10:16;;;;;;;16.33;12.07;;;;;;;27.03;58.60;101002.78;4953173;28;20051;-68
2021/06/28 10:12:45;;;;;;;17.95;13.00;;;;;;;27.09;59.70;101006.75;4983161;28;20112;-68
2021/06/28 10:15:13;;;;;;;17.65;12.43;;;;;;;27.41;59.04;101011.13;5001277;28;20057;-69
2021/06/28 10:17:40;;;;;;;24.98;12.85;;;;;;;27.55;57.85;101018.84;4981424;28;20046;-68
2021/06/28 10:20:09;;;;;;;15.48;11.15;;;;;;;27.70;56.59;101021.16;4974392;28;20102;-68
2021/06/28 10:22:37;;;;;;;11.98;9.15;;;;;;;27.87;56.66;101011.63;4981081;28;20058;-68
2021/06/28 10:25:07;;;;;;;11.48;8.45;;;;;;;28.05;54.22;101011.81;4980885;28;20057;-70
2021/06/28 10:27:36;;;;;;;12.52;8.00;;;;;;;28.28;53.66;101009.78;4985362;28;20039;-68
2021/06/28 10:30:06;;;;;;;12.27;8.07;;;;;;;28.36;53.58;101006.41;4983807;28;20046;-67
2021/06/28 10:32:33;;;;;;;10.52;8.10;;;;;;;28.36;54.45;101006.41;4982041;28;20525;-69
2021/06/28 10:35:00;;;;;;;12.35;7.72;;;;;;;28.49;54.11;101000.78;4982079;28;20458;-68
2021/06/28 10:37:31;;;;;;;9.77;7.75;;;;;;;28.60;54.04;101002.50;4972540;28;20047;-68
2021/06/28 10:39:59;;;;;;;13.35;7.80;;;;;;;28.69;53.64;101007.00;4991415;28;20055;-68
2021/06/28 10:42:31;;;;;;;10.15;7.93;;;;;;;28.66;53.47;101001.91;4989753;28;20118;-68
2021/06/28 10:44:59;;;;;;;8.82;7.35;;;;;;;28.65;53.62;100997.53;4974341;28;20133;-69
2021/06/28 10:47:28;;;;;;;10.57;8.23;;;;;;;28.68;52.56;100994.59;4973944;28;20046;-67
2021/06/28 10:49:54;;;;;;;9.98;7.45;;;;;;;28.72;53.87;101005.88;4987250;28;20051;-69
2021/06/28 10:52:47;;;;;;;9.32;7.78;;;;;;;28.67;53.66;101006.28;4982733;28;20054;-68
2021/06/28 10:55:38;;;;;;;9.02;7.53;;;;;;;28.67;54.27;101003.59;4984346;28;20050;-67
2021/06/28 10:58:24;;;;;;;10.00;7.30;;;;;;;28.66;52.98;101009.94;4980609;28;20558;-67
2021/06/28 11:00:53;;;;;;;10.43;7.50;;;;;;;28.64;52.37;101009.22;4993421;28;20046;-69
2021/06/28 11:03:32;;;;;;;10.52;7.90;;;;;;;28.61;52.92;100998.81;4985759;28;20054;-69
2021/06/28 11:06:16;;;;;;;11.65;8.02;;;;;;;28.63;51.80;100991.47;4986908;28;20501;-69
2021/06/28 11:08:57;;;;;;;11.70;8.85;;;;;;;28.60;52.15;100986.44;4995037;28;20069;-69
2021/06/28 11:11:57;;;;;;;13.05;8.27;;;;;;;28.72;51.75;100973.75;4987333;28;20074;-67
2021/06/28 11:14:44;;;;;;;12.10;8.68;;;;;;;28.74;50.87;100959.25;4983311;28;20494;-68
2021/06/28 11:17:15;;;;;;;14.40;9.35;;;;;;;28.68;50.63;100960.63;4990780;28;20042;-69